Flag for United Kingdom

Past Weather in 53°28'48.8"N, 2°14'32.4"W, United Kingdom — Yesterday and Last 2 Weeks

Currently: 37 °F. Chilly. (Weather station: Manchester Airport, United Kingdom). See more current weather

Past Weather in 53°28'48.8"N, 2°14'32.4"W — Graph

°F

53°28'48.8"N, 2°14'32.4"W Temperature Yesterday

Maximum temperature yesterday: 50 °F (at 3:20 pm)
Minimum temperature yesterday: 32 °F (at 4:50 am)
Average temperature yesterday: 42 °F

High & Low Weather Summary for the Past Weeks

 TemperatureHumidityPressure
High63 °F (Apr 23, 2:20 pm)100% (May 1, 3:20 am)30.48 "Hg (May 1, 3:20 am)
Low28 °F (Apr 22, 4:50 am)21% (Apr 22, 2:50 pm)29.12 "Hg (May 3, 11:50 pm)
Average46 °F68%30.03 "Hg
* Reported Apr 20 10:20 pm — May 5 10:50 pm, 53°28'48.8"N, 2°14'32.4"W. Weather by CustomWeather, © 2021

Note: Actual official high and low records may vary slightly from our data, if they occured in-between our weather recording intervals... More about our weather records

53°28'48.8"N, 2°14'32.4"W Weather History for the Previous 24 Hours

Scroll right to see more
 ConditionsComfort  
Time TempWeatherWind HumidityBarometerVisibility
10:50 pm
Wed, May 5
36 °FChilly.3 mph87%29.77 "HgN/A
10:20 pm43 °FQuite cool.2 mph66%29.77 "HgN/A
9:50 pm43 °FQuite cool.5 mph71%29.80 "HgN/A
9:20 pm43 °FQuite cool.6 mph66%29.80 "HgN/A
8:50 pm43 °FQuite cool.5 mph66%29.77 "HgN/A
8:20 pm45 °FQuite cool.9 mph61%29.77 "HgN/A
7:50 pm46 °FScattered clouds.12 mph53%29.77 "HgN/A
7:20 pm46 °FCool.10 mph53%29.77 "HgN/A
6:50 pm46 °FBroken clouds.9 mph57%29.77 "HgN/A
6:20 pm48 °FCool.12 mph46%29.77 "HgN/A
5:50 pm50 °FPassing clouds.14 mph40%29.77 "HgN/A
5:20 pm50 °FPassing clouds.13 mph43%29.77 "HgN/A
4:50 pm50 °FCool.14 mph40%29.77 "HgN/A
4:20 pm50 °FPassing clouds.15 mph47%29.77 "HgN/A
3:50 pm50 °FScattered clouds.14 mph43%29.77 "HgN/A
3:20 pm50 °FScattered clouds.13 mph50%29.80 "HgN/A
2:50 pm48 °FBroken clouds.13 mph50%29.80 "HgN/A
2:20 pm46 °FPassing clouds.9 mph57%29.80 "HgN/A
1:50 pm45 °FScattered clouds.8 mph71%29.80 "HgN/A
1:20 pm43 °FBroken clouds.10 mph76%29.80 "HgN/A
12:50 pm46 °FLight rain. Broken clouds.10 mph71%29.80 "HgN/A
12:20 pm48 °FPassing clouds.7 mph58%29.80 "HgN/A
11:50 am45 °FPartly sunny.10 mph66%29.80 "HgN/A
11:20 am46 °FPartly sunny.7 mph57%29.80 "HgN/A
10:50 am46 °FPartly sunny.9 mph53%29.77 "HgN/A
10:20 am46 °FPassing clouds.10 mph57%29.77 "HgN/A
9:50 am45 °FPassing clouds.8 mph66%29.77 "HgN/A
9:20 am45 °FQuite cool.3 mph66%29.77 "HgN/A
8:50 am43 °FQuite cool.5 mph71%29.77 "HgN/A
8:20 am41 °FQuite cool.5 mph81%29.74 "HgN/A
7:50 am39 °FChilly.2 mph100%29.74 "HgN/A
7:20 am36 °FChilly.2 mph100%29.74 "HgN/A
6:50 am36 °FFog.2 mph100%29.74 "Hg3 mi
6:20 am32 °FFog.3 mph100%29.74 "Hg1 mi
5:50 am32 °FIce fog.3 mph100%29.71 "Hg1 mi
5:20 am32 °FIce fog.3 mph100%29.71 "Hg1 mi
4:50 am32 °FFog.3 mph100%29.71 "Hg1 mi
4:20 am34 °FFog.3 mph100%29.71 "Hg1 mi
3:50 am34 °FFog.2 mph100%29.71 "Hg0 mi
3:20 am36 °FFog.3 mph100%29.68 "Hg1 mi
2:50 am36 °FFog.2 mph100%29.68 "Hg0 mi
2:20 am36 °FPassing clouds.3 mph100%29.68 "HgN/A
1:20 am37 °FPassing clouds.2 mph100%29.68 "HgN/A
12:50 am36 °FPassing clouds.1 mph100%29.68 "HgN/A
12:20 am37 °FPassing clouds.3 mph100%29.68 "HgN/A
Weather by CustomWeather, © 2021

See weather overview